createdAt,value
2022-11-23T00:00:44.282Z,100132.03
2022-11-23T00:03:15.494Z,100132.53
2022-11-23T00:05:43.448Z,100122.31
2022-11-23T00:08:12.672Z,100123.41
2022-11-23T00:10:40.510Z,100121.72
2022-11-23T00:13:08.684Z,100116.25
2022-11-23T00:15:36.580Z,100120.66
2022-11-23T00:18:04.548Z,100129.28
2022-11-23T00:20:32.719Z,100124.97
2022-11-23T00:23:00.527Z,100119.69
2022-11-23T00:25:29.721Z,100123.06
2022-11-23T00:27:57.623Z,100124.78
2022-11-23T00:30:25.440Z,100122.84
2022-11-23T00:32:55.210Z,100112.50
2022-11-23T00:35:24.488Z,100113.50
2022-11-23T00:37:52.384Z,100119.84
2022-11-23T00:40:20.350Z,100126.38
2022-11-23T00:42:49.582Z,100126.28
2022-11-23T00:45:17.553Z,100132.72
2022-11-23T00:47:45.337Z,100137.66
2022-11-23T00:50:13.180Z,100142.47
2022-11-23T00:52:40.973Z,100144.25
2022-11-23T00:55:09.553Z,100149.06
2022-11-23T00:57:37.579Z,100144.25
2022-11-23T01:00:08.511Z,100147.97
2022-11-23T01:02:37.163Z,100146.00
2022-11-23T01:05:05.252Z,100154.84
2022-11-23T01:07:33.532Z,100151.69
2022-11-23T01:10:01.502Z,100144.81
2022-11-23T01:12:30.154Z,100146.19
2022-11-23T01:14:58.007Z,100140.72
2022-11-23T01:17:27.219Z,100145.81
2022-11-23T01:19:55.073Z,100143.34
2022-11-23T01:22:22.907Z,100142.13
2022-11-23T01:24:51.401Z,100135.19
2022-11-23T01:27:19.255Z,100130.94
2022-11-23T01:29:47.101Z,100145.28
2022-11-23T01:32:14.927Z,100143.28
2022-11-23T01:34:44.141Z,100148.03
2022-11-23T01:37:12.125Z,100151.97
2022-11-23T01:39:39.917Z,100142.84
2022-11-23T01:42:08.698Z,100146.72
2022-11-23T01:44:38.575Z,100149.16
2022-11-23T01:47:08.394Z,100160.13
2022-11-23T01:49:40.397Z,100150.78
2022-11-23T01:52:13.187Z,100156.03
2022-11-23T01:54:45.925Z,100156.06
2022-11-23T01:57:18.776Z,100154.00
2022-11-23T01:59:47.366Z,100155.03
2022-11-23T02:02:16.228Z,100149.00
2022-11-23T02:04:48.117Z,100150.28
2022-11-23T02:07:18.168Z,100158.03
2022-11-23T02:09:48.317Z,100155.78
2022-11-23T02:12:16.843Z,100153.53
2022-11-23T02:14:45.902Z,100143.63
2022-11-23T02:17:14.385Z,100147.84
2022-11-23T02:19:53.019Z,100143.13
2022-11-23T02:22:30.431Z,100152.56
2022-11-23T02:25:01.348Z,100147.78
2022-11-23T02:27:30.844Z,100144.47
2022-11-23T02:30:01.974Z,100143.31
2022-11-23T02:32:30.804Z,100140.56
2022-11-23T02:34:58.727Z,100144.06
2022-11-23T02:37:26.837Z,100141.22
2022-11-23T02:39:57.962Z,100137.84
2022-11-23T02:42:27.120Z,100132.91
2022-11-23T02:45:09.382Z,100123.66
2022-11-23T02:47:38.361Z,100132.53
2022-11-23T02:50:06.908Z,100126.50
2022-11-23T02:52:34.889Z,100131.53
2022-11-23T02:55:03.182Z,100132.97
2022-11-23T02:57:31.067Z,100141.97
2022-11-23T02:59:58.929Z,100141.00
2022-11-23T03:02:28.192Z,100139.53
2022-11-23T03:04:56.011Z,100156.94
2022-11-23T03:07:23.909Z,100158.75
2022-11-23T03:09:51.897Z,100155.03
2022-11-23T03:12:20.944Z,100158.63
2022-11-23T03:14:48.784Z,100164.03
2022-11-23T03:17:18.516Z,100160.06
2022-11-23T03:19:48.425Z,100159.41
2022-11-23T03:22:16.400Z,100165.41
2022-11-23T03:24:44.278Z,100162.31
2022-11-23T03:27:16.956Z,100172.25
2022-11-23T03:29:46.373Z,100165.03
2022-11-23T03:32:19.088Z,100157.66
2022-11-23T03:34:52.454Z,100166.91
2022-11-23T03:37:22.254Z,100165.97
2022-11-23T03:39:50.421Z,100163.50
2022-11-23T03:42:36.769Z,100167.34
2022-11-23T03:45:05.532Z,100169.16
2022-11-23T03:47:33.704Z,100163.53
2022-11-23T03:50:03.526Z,100166.47
2022-11-23T03:52:33.064Z,100161.78
2022-11-23T03:55:01.255Z,100169.16
2022-11-23T03:57:29.539Z,100165.28
2022-11-23T03:59:57.489Z,100164.47
2022-11-23T04:02:25.701Z,100168.16
2022-11-23T04:05:05.579Z,100162.00
2022-11-23T04:07:54.375Z,100160.84
2022-11-23T04:10:22.953Z,100172.03
2022-11-23T04:13:01.114Z,100166.34
2022-11-23T04:15:29.184Z,100170.06
2022-11-23T04:17:57.302Z,100171.69
2022-11-23T04:20:26.596Z,100170.88
2022-11-23T04:22:55.174Z,100171.16
2022-11-23T04:25:24.219Z,100177.25
2022-11-23T04:27:53.426Z,100164.69
2022-11-23T04:30:21.412Z,100163.19
2022-11-23T04:32:49.371Z,100166.13
2022-11-23T04:35:17.340Z,100168.19
2022-11-23T04:37:50.817Z,100170.13
2022-11-23T04:40:19.836Z,100174.84
2022-11-23T04:43:01.728Z,100176.16
2022-11-23T04:45:31.201Z,100179.88
2022-11-23T04:48:03.804Z,100176.41
2022-11-23T04:50:34.183Z,100180.34
2022-11-23T04:53:03.895Z,100178.16
2022-11-23T04:55:38.811Z,100173.38
2022-11-23T04:58:06.883Z,100185.97
2022-11-23T05:00:35.836Z,100180.06
2022-11-23T05:03:05.807Z,100169.41
2022-11-23T05:05:38.725Z,100171.47
2022-11-23T05:08:08.476Z,100175.69
2022-11-23T05:10:49.047Z,100174.00
2022-11-23T05:13:17.024Z,100177.66
2022-11-23T05:15:45.956Z,100176.81
2022-11-23T05:18:18.499Z,100175.91
2022-11-23T05:20:46.819Z,100178.66
2022-11-23T05:23:18.114Z,100173.13
2022-11-23T05:25:46.929Z,100174.41
2022-11-23T05:31:08.747Z,100167.38
2022-11-23T05:33:37.029Z,100175.72
2022-11-23T05:36:08.757Z,100175.34
2022-11-23T05:38:41.033Z,100168.38
2022-11-23T05:41:16.849Z,100174.75
2022-11-23T05:43:45.831Z,100173.81
2022-11-23T05:46:19.415Z,100170.84
2022-11-23T05:48:48.060Z,100174.66
2022-11-23T05:51:16.152Z,100178.63
2022-11-23T05:53:47.463Z,100174.00
2022-11-23T05:56:35.800Z,100171.25
2022-11-23T05:59:10.333Z,100173.47
2022-11-23T06:01:40.310Z,100171.50
2022-11-23T06:04:10.304Z,100166.19
2022-11-23T06:06:43.159Z,100160.28
2022-11-23T06:09:12.995Z,100160.31
2022-11-23T06:11:45.275Z,100168.97
2022-11-23T06:14:17.846Z,100165.31
2022-11-23T06:16:47.527Z,100169.50
2022-11-23T06:19:36.133Z,100169.75
2022-11-23T06:22:05.751Z,100178.28
2022-11-23T06:24:39.913Z,100185.09
2022-11-23T06:27:36.985Z,100180.97
2022-11-23T06:30:13.300Z,100183.16
2022-11-23T06:32:41.905Z,100200.63
2022-11-23T06:35:10.368Z,100195.97
2022-11-23T06:37:41.258Z,100192.41
2022-11-23T06:40:12.309Z,100193.56
2022-11-23T06:42:41.256Z,100197.78
2022-11-23T06:45:17.830Z,100194.66
2022-11-23T06:47:46.976Z,100195.69
2022-11-23T06:50:15.782Z,100196.03
2022-11-23T06:52:48.430Z,100199.63
2022-11-23T06:55:19.460Z,100193.25
2022-11-23T06:57:47.439Z,100190.38
2022-11-23T07:00:16.368Z,100200.97
2022-11-23T07:02:52.076Z,100193.13
2022-11-23T07:05:23.107Z,100197.38
2022-11-23T07:07:51.659Z,100201.31
2022-11-23T07:10:27.124Z,100208.06
2022-11-23T07:13:05.005Z,100199.09
2022-11-23T07:15:34.618Z,100201.06
2022-11-23T07:18:02.677Z,100208.16
2022-11-23T07:20:30.648Z,100225.88
2022-11-23T07:23:02.349Z,100219.47
2022-11-23T07:25:33.124Z,100222.44
2022-11-23T07:28:03.325Z,100227.53
2022-11-23T07:30:32.559Z,100225.94
2022-11-23T07:33:01.299Z,100229.44
2022-11-23T07:35:30.382Z,100225.81
2022-11-23T07:37:58.902Z,100229.53
2022-11-23T07:40:27.698Z,100235.38
2022-11-23T07:43:02.103Z,100233.28
2022-11-23T07:45:30.348Z,100234.16
2022-11-23T07:48:01.345Z,100226.44
2022-11-23T07:50:30.139Z,100237.78
2022-11-23T07:52:58.082Z,100241.47
2022-11-23T07:55:26.105Z,100239.38
2022-11-23T07:57:54.760Z,100246.72
2022-11-23T08:00:25.092Z,100252.50
2022-11-23T08:03:25.747Z,100251.81
2022-11-23T08:05:41.208Z,100244.38
2022-11-23T08:08:09.112Z,100253.16
2022-11-23T08:10:42.019Z,100253.81
2022-11-23T08:13:13.050Z,100253.81
2022-11-23T08:15:42.427Z,100255.34
2022-11-23T08:18:11.185Z,100265.13
2022-11-23T08:20:39.086Z,100261.88
2022-11-23T08:23:06.918Z,100256.19
2022-11-23T08:25:34.791Z,100260.28
2022-11-23T08:28:04.927Z,100263.13
2022-11-23T08:30:34.689Z,100262.47
2022-11-23T08:33:05.705Z,100256.97
2022-11-23T08:35:34.330Z,100258.47
2022-11-23T08:38:02.563Z,100250.72
2022-11-23T08:40:30.446Z,100252.41
2022-11-23T08:42:58.317Z,100243.13
2022-11-23T08:45:27.039Z,100256.13
2022-11-23T08:47:55.807Z,100266.81
2022-11-23T08:50:25.014Z,100256.59
2022-11-23T08:52:56.452Z,100258.84
2022-11-23T08:55:24.701Z,100255.09
2022-11-23T08:57:56.664Z,100259.13
2022-11-23T09:00:25.860Z,100259.69
2022-11-23T09:02:53.874Z,100258.47
2022-11-23T09:05:21.782Z,100261.88
2022-11-23T09:07:51.076Z,100265.31
2022-11-23T09:10:19.519Z,100269.16
2022-11-23T09:12:48.000Z,100262.88
2022-11-23T09:15:16.191Z,100257.34
2022-11-23T09:17:44.893Z,100258.84
2022-11-23T09:20:13.337Z,100257.59
2022-11-23T09:22:41.166Z,100260.00
2022-11-23T09:25:11.236Z,100250.66
2022-11-23T09:27:39.131Z,100246.38
2022-11-23T09:30:08.178Z,100245.78
2022-11-23T09:32:36.097Z,100248.56
2022-11-23T09:35:04.073Z,100227.66
2022-11-23T09:37:31.954Z,100230.19
2022-11-23T09:39:59.826Z,100226.81
2022-11-23T09:42:46.753Z,100230.03
2022-11-23T09:45:22.745Z,100229.59
2022-11-23T09:48:16.211Z,100216.44
2022-11-23T09:50:48.375Z,100219.97
2022-11-23T09:53:21.758Z,100220.81
2022-11-23T09:55:52.743Z,100213.69
2022-11-23T09:58:24.322Z,100223.38
2022-11-23T10:01:00.988Z,100217.94
2022-11-23T10:03:29.565Z,100228.47
2022-11-23T10:06:03.756Z,100224.44
2022-11-23T10:08:44.222Z,100222.56
2022-11-23T10:11:41.859Z,100218.38
2022-11-23T10:14:24.031Z,100215.59
2022-11-23T10:17:00.568Z,100210.50
2022-11-23T10:19:41.467Z,100213.28
2022-11-23T10:22:17.581Z,100208.63
2022-11-23T10:24:50.395Z,100203.63
2022-11-23T10:27:21.173Z,100208.84
2022-11-23T10:29:52.419Z,100205.94
2022-11-23T10:32:31.680Z,100192.00
2022-11-23T10:35:05.310Z,100202.03
2022-11-23T10:37:34.425Z,100200.34
2022-11-23T10:40:02.449Z,100208.13
2022-11-23T10:42:34.690Z,100205.69
2022-11-23T10:45:05.629Z,100206.94
2022-11-23T10:47:40.193Z,100199.28
2022-11-23T10:50:23.429Z,100202.94
2022-11-23T10:52:53.934Z,100198.06
2022-11-23T10:55:27.534Z,100196.72
2022-11-23T10:57:56.427Z,100205.59
2022-11-23T11:00:30.811Z,100197.69
2022-11-23T11:03:00.230Z,100191.66
2022-11-23T11:08:25.349Z,100191.28
2022-11-23T11:10:59.932Z,100201.59
2022-11-23T11:13:31.092Z,100197.22
2022-11-23T11:16:02.405Z,100184.81
2022-11-23T11:18:32.996Z,100202.25
2022-11-23T11:21:04.328Z,100189.19
2022-11-23T11:23:33.845Z,100185.22
2022-11-23T11:26:08.528Z,100179.19
2022-11-23T11:28:39.559Z,100181.16
2022-11-23T11:31:42.236Z,100182.38
2022-11-23T11:34:21.262Z,100177.25
2022-11-23T11:36:57.199Z,100172.88
2022-11-23T11:39:29.904Z,100170.69
2022-11-23T11:42:00.972Z,100176.13
2022-11-23T11:44:31.220Z,100172.13
2022-11-23T11:47:05.750Z,100172.13
2022-11-23T11:49:39.331Z,100181.94
2022-11-23T11:52:12.012Z,100182.31
2022-11-23T11:54:49.935Z,100190.66
2022-11-23T11:57:21.772Z,100185.47
2022-11-23T11:59:53.038Z,100186.03
2022-11-23T12:02:25.965Z,100191.53
2022-11-23T12:05:11.432Z,100189.34
2022-11-23T12:07:46.674Z,100189.72
2022-11-23T12:10:19.668Z,100186.03
2022-11-23T12:12:48.689Z,100182.25
2022-11-23T12:15:47.711Z,100179.41
2022-11-23T12:18:34.730Z,100184.69
2022-11-23T12:21:05.749Z,100179.88
2022-11-23T12:23:46.494Z,100186.31
2022-11-23T12:26:23.625Z,100186.16
2022-11-23T12:29:06.000Z,100184.06
2022-11-23T12:31:43.774Z,100184.53
2022-11-23T12:34:27.574Z,100183.09
2022-11-23T12:37:09.539Z,100190.13
2022-11-23T12:40:03.521Z,100191.16
2022-11-23T12:42:39.861Z,100190.91
2022-11-23T12:45:23.653Z,100193.22
2022-11-23T12:48:00.398Z,100188.84
2022-11-23T12:50:36.430Z,100193.94
2022-11-23T12:53:17.557Z,100189.72
2022-11-23T12:55:53.036Z,100188.94
2022-11-23T12:58:24.897Z,100190.41
2022-11-23T13:00:57.621Z,100190.41
2022-11-23T13:03:56.630Z,100188.56
2022-11-23T13:07:20.340Z,100187.97
2022-11-23T13:10:07.732Z,100180.66
2022-11-23T13:12:53.207Z,100185.69
2022-11-23T13:15:35.657Z,100183.59
2022-11-23T13:18:20.506Z,100181.25
2022-11-23T13:21:10.427Z,100181.56
2022-11-23T13:23:40.744Z,100183.88
2022-11-23T13:26:19.878Z,100178.31
2022-11-23T13:28:49.256Z,100183.16
2022-11-23T13:31:24.809Z,100174.88
2022-11-23T13:33:55.961Z,100179.22
2022-11-23T13:40:04.642Z,100178.53
2022-11-23T13:42:35.603Z,100188.28
2022-11-23T13:45:24.704Z,100180.56
2022-11-23T13:51:06.578Z,100176.41
2022-11-23T13:53:36.889Z,100176.59
2022-11-23T13:56:27.887Z,100180.22
2022-11-23T13:58:57.348Z,100186.88
2022-11-23T14:02:04.126Z,100189.53
2022-11-23T14:04:33.903Z,100195.56
2022-11-23T14:07:06.826Z,100191.53
2022-11-23T14:09:37.898Z,100193.09
2022-11-23T14:12:19.798Z,100187.66
2022-11-23T14:14:57.318Z,100189.97
2022-11-23T14:17:58.220Z,100185.81
2022-11-23T14:20:38.480Z,100194.59
2022-11-23T14:23:30.514Z,100195.38
2022-11-23T14:26:11.526Z,100190.22
2022-11-23T14:28:51.718Z,100186.47
2022-11-23T14:31:31.529Z,100194.03
2022-11-23T14:34:06.847Z,100204.69
2022-11-23T14:36:42.474Z,100200.13
2022-11-23T14:39:46.057Z,100202.41
2022-11-23T14:42:18.260Z,100204.50
2022-11-23T14:44:48.601Z,100205.56
2022-11-23T14:47:26.907Z,100207.38
2022-11-23T14:49:55.493Z,100221.56
2022-11-23T14:52:25.742Z,100223.88
2022-11-23T14:54:55.555Z,100217.47
2022-11-23T14:57:26.057Z,100220.81
2022-11-23T14:59:58.921Z,100226.38
2022-11-23T15:02:37.060Z,100230.34
2022-11-23T15:05:09.991Z,100225.53
2022-11-23T15:07:46.856Z,100223.00
2022-11-23T15:10:34.167Z,100219.75
2022-11-23T15:13:01.994Z,100222.88
2022-11-23T15:15:33.122Z,100224.84
2022-11-23T15:18:02.378Z,100226.88
2022-11-23T15:20:33.855Z,100231.34
2022-11-23T15:23:04.029Z,100231.31
2022-11-23T15:25:33.290Z,100231.06
2022-11-23T15:28:01.189Z,100236.44
2022-11-23T15:30:32.012Z,100236.41
2022-11-23T15:33:01.978Z,100243.91
2022-11-23T15:35:33.939Z,100253.25
2022-11-23T15:38:03.346Z,100251.75
2022-11-23T15:40:35.037Z,100247.28
2022-11-23T15:43:03.166Z,100252.59
2022-11-23T15:45:40.333Z,100248.31
2022-11-23T15:48:14.666Z,100252.56
2022-11-23T15:50:49.234Z,100242.53
2022-11-23T15:53:17.320Z,100249.41
2022-11-23T15:55:45.770Z,100249.31
2022-11-23T15:58:18.309Z,100257.03
2022-11-23T16:00:52.930Z,100262.06
2022-11-23T16:03:36.215Z,100268.66
2022-11-23T16:06:16.946Z,100265.44
2022-11-23T16:08:45.093Z,100262.59
2022-11-23T16:11:28.709Z,100264.97
2022-11-23T16:14:13.004Z,100259.59
2022-11-23T16:16:46.042Z,100263.19
2022-11-23T16:19:24.378Z,100264.34
2022-11-23T16:22:01.778Z,100262.47
2022-11-23T16:24:31.521Z,100266.56
2022-11-23T16:26:59.640Z,100272.53
2022-11-23T16:29:30.744Z,100281.22
2022-11-23T16:32:00.976Z,100277.59
2022-11-23T16:34:29.744Z,100284.94
2022-11-23T16:36:59.174Z,100284.28
2022-11-23T16:39:27.772Z,100283.78
2022-11-23T16:41:55.643Z,100286.97
2022-11-23T16:44:23.548Z,100275.34
2022-11-23T16:46:51.540Z,100277.84
2022-11-23T16:49:22.995Z,100284.53
2022-11-23T16:51:57.100Z,100292.31
2022-11-23T16:54:25.793Z,100284.63
2022-11-23T16:56:54.067Z,100272.53
2022-11-23T16:59:23.728Z,100286.22
2022-11-23T17:01:57.004Z,100289.25
2022-11-23T17:04:26.897Z,100276.88
2022-11-23T17:06:55.002Z,100283.94
2022-11-23T17:09:22.831Z,100279.94
2022-11-23T17:11:51.095Z,100283.38
2022-11-23T17:14:21.301Z,100289.19
2022-11-23T17:16:50.971Z,100279.78
2022-11-23T17:19:20.554Z,100282.47
2022-11-23T17:21:49.814Z,100297.22
2022-11-23T17:24:17.671Z,100275.69
2022-11-23T17:26:47.716Z,100278.34
2022-11-23T17:29:19.556Z,100284.16
2022-11-23T17:31:47.676Z,100278.88
2022-11-23T17:34:16.272Z,100280.78
2022-11-23T17:36:45.469Z,100287.50
2022-11-23T17:39:18.914Z,100288.00
2022-11-23T17:41:48.022Z,100282.69
2022-11-23T17:44:16.578Z,100297.56
2022-11-23T17:46:45.203Z,100296.84
2022-11-23T17:49:14.910Z,100300.44
2022-11-23T17:51:43.101Z,100295.88
2022-11-23T17:54:10.983Z,100299.72
2022-11-23T17:56:40.264Z,100302.34
2022-11-23T17:59:08.114Z,100305.63
2022-11-23T18:01:36.068Z,100310.00
2022-11-23T18:04:04.893Z,100303.09
2022-11-23T18:06:33.384Z,100307.34
2022-11-23T18:09:01.224Z,100323.22
2022-11-23T18:11:29.107Z,100318.13
2022-11-23T18:13:58.632Z,100318.91
2022-11-23T18:16:26.949Z,100327.69
2022-11-23T18:18:55.171Z,100316.03
2022-11-23T18:21:23.028Z,100324.88
2022-11-23T18:23:50.872Z,100317.75
2022-11-23T18:26:21.251Z,100319.56
2022-11-23T18:28:49.846Z,100327.84
2022-11-23T18:31:19.816Z,100321.16
2022-11-23T18:33:47.800Z,100332.19
2022-11-23T18:36:15.820Z,100339.16
2022-11-23T18:38:45.004Z,100326.59
2022-11-23T18:41:13.503Z,100332.72
2022-11-23T18:43:41.386Z,100338.75
2022-11-23T18:46:10.483Z,100332.50
2022-11-23T18:48:39.887Z,100333.00
2022-11-23T18:51:11.707Z,100340.03
2022-11-23T18:53:39.664Z,100337.84
2022-11-23T18:56:09.311Z,100337.69
2022-11-23T18:58:38.734Z,100342.56
2022-11-23T19:01:12.687Z,100338.34
2022-11-23T19:03:43.084Z,100334.13
2022-11-23T19:06:13.642Z,100348.13
2022-11-23T19:08:42.995Z,100343.84
2022-11-23T19:11:16.038Z,100352.31
2022-11-23T19:13:44.834Z,100352.25
2022-11-23T19:16:15.187Z,100342.69
2022-11-23T19:18:45.102Z,100348.97
2022-11-23T19:21:14.513Z,100350.91
2022-11-23T19:23:42.431Z,100347.28
2022-11-23T19:26:10.343Z,100346.75
2022-11-23T19:28:38.679Z,100357.13
2022-11-23T19:31:11.635Z,100363.22
2022-11-23T19:33:39.563Z,100366.56
2022-11-23T19:36:10.829Z,100369.56
2022-11-23T19:38:38.862Z,100369.50
2022-11-23T19:41:06.991Z,100367.19
2022-11-23T19:43:35.158Z,100371.66
2022-11-23T19:46:05.414Z,100372.25
2022-11-23T19:48:34.771Z,100381.31
2022-11-23T19:51:04.841Z,100374.75
2022-11-23T19:53:35.395Z,100373.47
2022-11-23T19:56:04.053Z,100376.16
2022-11-23T19:58:32.659Z,100377.31
2022-11-23T20:01:01.406Z,100369.94
2022-11-23T20:03:29.654Z,100369.34
2022-11-23T20:05:58.638Z,100384.09
2022-11-23T20:08:26.664Z,100376.00
2022-11-23T20:10:57.756Z,100378.56
2022-11-23T20:13:25.835Z,100380.47
2022-11-23T20:15:54.120Z,100378.31
2022-11-23T20:18:26.911Z,100384.38
2022-11-23T20:20:57.430Z,100381.41
2022-11-23T20:23:25.498Z,100390.66
2022-11-23T20:25:58.261Z,100397.81
2022-11-23T20:28:26.771Z,100393.78
2022-11-23T20:30:54.666Z,100404.16
2022-11-23T20:33:22.881Z,100408.59
2022-11-23T20:35:50.703Z,100408.50
2022-11-23T20:38:18.626Z,100407.06
2022-11-23T20:40:46.451Z,100404.16
2022-11-23T20:43:15.693Z,100406.59
2022-11-23T20:45:44.133Z,100405.94
2022-11-23T20:48:12.078Z,100404.97
2022-11-23T20:50:39.912Z,100405.19
2022-11-23T20:53:07.791Z,100403.38
2022-11-23T20:55:36.593Z,100411.63
2022-11-23T20:58:04.442Z,100414.56
2022-11-23T21:00:33.653Z,100411.44
2022-11-23T21:03:01.589Z,100418.44
2022-11-23T21:05:29.486Z,100415.41
2022-11-23T21:07:57.436Z,100421.28
2022-11-23T21:10:42.566Z,100416.72
2022-11-23T21:13:48.626Z,100419.19
2022-11-23T21:16:18.715Z,100425.66
2022-11-23T21:18:46.633Z,100439.25
2022-11-23T21:21:14.464Z,100435.00
2022-11-23T21:23:42.325Z,100443.72
2022-11-23T21:26:10.183Z,100441.06
2022-11-23T21:28:38.115Z,100448.66
2022-11-23T21:31:08.685Z,100452.91
2022-11-23T21:33:38.983Z,100453.06
2022-11-23T21:36:08.619Z,100456.97
2022-11-23T21:38:37.021Z,100459.72
2022-11-23T21:41:06.169Z,100457.47
2022-11-23T21:43:34.192Z,100456.50
2022-11-23T21:46:02.482Z,100460.38
2022-11-23T21:48:30.542Z,100457.88
2022-11-23T21:51:04.413Z,100461.03
2022-11-23T21:53:33.155Z,100467.75
2022-11-23T21:56:02.263Z,100464.16
2022-11-23T21:58:30.152Z,100474.16
2022-11-23T22:01:04.389Z,100469.16
2022-11-23T22:03:33.035Z,100471.03
2022-11-23T22:06:00.881Z,100475.25
2022-11-23T22:08:30.202Z,100474.69
2022-11-23T22:10:58.132Z,100473.97
2022-11-23T22:13:26.441Z,100479.28
2022-11-23T22:15:54.356Z,100488.41
2022-11-23T22:18:22.271Z,100489.81
2022-11-23T22:20:50.091Z,100493.16
2022-11-23T22:23:18.023Z,100498.38
2022-11-23T22:25:48.336Z,100504.72
2022-11-23T22:28:16.373Z,100508.22
2022-11-23T22:30:44.258Z,100507.03
2022-11-23T22:33:13.443Z,100499.84
2022-11-23T22:35:41.409Z,100509.31
2022-11-23T22:38:09.366Z,100505.28
2022-11-23T22:40:37.372Z,100520.50
2022-11-23T22:43:06.646Z,100517.25
2022-11-23T22:45:34.576Z,100524.13
2022-11-23T22:48:02.517Z,100516.63
2022-11-23T22:50:30.366Z,100530.25
2022-11-23T22:52:58.347Z,100522.22
2022-11-23T22:55:26.834Z,100516.63
2022-11-23T22:57:54.727Z,100516.84
2022-11-23T23:00:24.200Z,100518.91
2022-11-23T23:02:52.175Z,100519.66
2022-11-23T23:05:20.357Z,100526.34
2022-11-23T23:07:48.410Z,100522.13
2022-11-23T23:10:16.562Z,100519.66
2022-11-23T23:12:44.474Z,100518.97
2022-11-23T23:15:12.540Z,100521.97
2022-11-23T23:17:41.828Z,100519.78
2022-11-23T23:20:10.539Z,100522.47
2022-11-23T23:22:38.872Z,100528.28
2022-11-23T23:25:08.431Z,100528.69
2022-11-23T23:27:36.501Z,100530.84
2022-11-23T23:30:04.912Z,100530.41
2022-11-23T23:32:32.871Z,100533.06
2022-11-23T23:35:02.253Z,100537.41
2022-11-23T23:37:31.016Z,100540.44
2022-11-23T23:39:58.905Z,100536.06
2022-11-23T23:42:26.846Z,100534.94
2022-11-23T23:44:54.903Z,100535.53
2022-11-23T23:47:22.798Z,100546.56
2022-11-23T23:49:50.763Z,100536.91
2022-11-23T23:52:20.295Z,100546.47
2022-11-23T23:54:48.242Z,100550.75
2022-11-23T23:57:16.202Z,100549.91
2022-11-23T23:59:44.114Z,100535.47
